Time;durP1;ratioP1;P1;durP2;ratioP2;P2;SDS_P1;SDS_P2;PMS_P1;PMS_P2;Temp;Humidity;BMP_temperature;BMP_pressure;BME280_temperature;BME280_humidity;BME280_pressure;Samples;Min_cycle;Max_cycle;Signal;HPM_P1;HPM_P2
2023/03/11 00:02:20;;;;;;;4.57;1.35;;;;;;;1.08;100.00;99911.00;5073035;28;20048;-84
2023/03/11 00:04:48;;;;;;;3.15;1.38;;;;;;;0.95;100.00;99879.34;5073483;28;20127;-84
2023/03/11 00:07:14;;;;;;;3.55;1.40;;;;;;;1.45;100.00;99953.53;5062248;28;20048;-84
2023/03/11 00:09:41;;;;;;;3.53;1.33;;;;;;;1.10;100.00;99898.09;5065046;28;20425;-84
2023/03/11 00:12:08;;;;;;;1.92;1.13;;;;;;;1.35;100.00;99957.97;5083230;28;20059;-85
2023/03/11 00:14:34;;;;;;;2.33;1.20;;;;;;;1.26;100.00;99940.03;5056223;28;20071;-84
2023/03/11 00:17:01;;;;;;;2.60;1.30;;;;;;;0.98;100.00;99899.09;5069947;28;20055;-84
2023/03/11 00:19:28;;;;;;;2.25;1.15;;;;;;;1.33;100.00;99959.72;5072837;28;20052;-84
2023/03/11 00:21:56;;;;;;;3.42;1.50;;;;;;;1.38;100.00;99965.66;5074017;28;20047;-84
2023/03/11 00:24:24;;;;;;;3.28;1.40;;;;;;;1.31;100.00;99964.88;5061030;28;20127;-84
2023/03/11 00:26:51;;;;;;;2.75;1.30;;;;;;;1.01;100.00;99918.81;5075921;28;20059;-84
2023/03/11 00:29:18;;;;;;;3.70;1.45;;;;;;;0.85;100.00;99882.91;5067453;28;20052;-84
2023/03/11 00:31:44;;;;;;;3.63;1.30;;;;;;;1.22;100.00;99946.06;5079238;28;20044;-84
2023/03/11 00:34:11;;;;;;;1.65;1.20;;;;;;;0.98;100.00;99893.09;5071664;28;20059;-84
2023/03/11 00:36:38;;;;;;;1.42;1.08;;;;;;;1.02;100.00;99900.75;5062592;28;20045;-84
2023/03/11 00:39:07;;;;;;;2.60;1.20;;;;;;;1.16;100.00;99933.25;5058488;28;20041;-84
2023/03/11 00:41:34;;;;;;;4.55;1.58;;;;;;;1.25;100.00;99938.31;5082687;28;20052;-84
2023/03/11 00:44:01;;;;;;;2.20;1.40;;;;;;;1.23;100.00;99946.06;5081489;28;20048;-84
2023/03/11 00:46:29;;;;;;;2.50;1.20;;;;;;;1.05;100.00;99920.50;5073633;28;20444;-84
2023/03/11 00:48:56;;;;;;;3.45;1.50;;;;;;;1.24;100.00;99952.06;5055538;28;20102;-84
2023/03/11 00:51:23;;;;;;;2.78;1.20;;;;;;;0.85;100.00;99902.66;5068249;28;20098;-84
2023/03/11 00:53:50;;;;;;;2.53;1.30;;;;;;;1.08;100.00;99947.09;5086964;28;20055;-84
2023/03/11 00:56:17;;;;;;;2.67;1.25;;;;;;;1.15;100.00;99942.69;5073156;28;20052;-84
2023/03/11 00:58:44;;;;;;;3.10;1.55;;;;;;;1.00;100.00;99936.00;5087347;28;20048;-84
2023/03/11 01:01:17;;;;;;;1.98;1.25;;;;;;;1.30;100.00;99982.94;5057246;28;20044;-84
2023/03/11 01:03:44;;;;;;;2.55;1.42;;;;;;;1.33;100.00;99988.09;5058235;28;20406;-84
2023/03/11 01:06:12;;;;;;;3.28;1.50;;;;;;;1.32;100.00;99994.94;5063606;28;20052;-84
2023/03/11 01:08:40;;;;;;;4.55;1.45;;;;;;;1.05;100.00;99947.13;5069070;28;20044;-84
2023/03/11 01:11:07;;;;;;;3.60;1.50;;;;;;;1.08;100.00;99966.84;5082135;28;20056;-84
2023/03/11 01:13:35;;;;;;;2.05;1.20;;;;;;;0.97;100.00;99937.78;5072370;28;20064;-84
2023/03/11 01:16:02;;;;;;;3.88;1.40;;;;;;;1.09;100.00;99960.84;5054346;28;20051;-84
2023/03/11 01:18:29;;;;;;;2.92;1.27;;;;;;;1.06;100.00;99964.31;5066868;28;20048;-84
2023/03/11 01:20:55;;;;;;;1.63;1.10;;;;;;;1.00;100.00;99966.94;5071792;28;20044;-84
2023/03/11 01:23:22;;;;;;;3.92;1.48;;;;;;;1.04;100.00;99954.88;5073795;28;20044;-84
2023/03/11 01:25:49;;;;;;;4.43;1.20;;;;;;;1.03;100.00;99968.66;5054352;28;20060;-84
2023/03/11 01:28:16;;;;;;;2.25;1.10;;;;;;;1.07;100.00;99978.91;5064305;28;20436;-84
2023/03/11 01:30:43;;;;;;;2.13;1.17;;;;;;;1.08;100.00;99972.88;5071163;28;20595;-84
2023/03/11 01:33:16;;;;;;;1.88;1.10;;;;;;;1.09;100.00;99984.03;5092502;28;20169;-84
2023/03/11 01:35:43;;;;;;;2.47;1.20;;;;;;;0.97;100.00;99984.16;5059456;28;20052;-84
2023/03/11 01:38:11;;;;;;;3.70;1.33;;;;;;;0.87;100.00;99968.81;5068579;28;20135;-85
2023/03/11 01:40:43;;;;;;;2.95;1.30;;;;;;;1.29;100.00;100010.47;5085079;28;20055;-85
2023/03/11 01:43:45;;;;;;;3.03;1.30;;;;;;;1.46;100.00;100017.16;5077675;28;20056;-85
2023/03/11 01:46:17;;;;;;;1.88;1.10;;;;;;;1.51;100.00;100011.06;5067128;28;20055;-85
2023/03/11 01:48:49;;;;;;;2.17;1.30;;;;;;;1.39;100.00;100006.06;5074567;28;20130;-84
2023/03/11 01:51:37;;;;;;;2.25;1.23;;;;;;;1.44;100.00;100018.91;5070664;28;20048;-84
2023/03/11 01:54:09;;;;;;;1.30;1.10;;;;;;;1.25;100.00;99971.84;5079015;28;20059;-84
2023/03/11 01:56:38;;;;;;;2.95;1.45;;;;;;;1.49;100.00;99999.06;5073995;28;20048;-84
2023/03/11 01:59:07;;;;;;;2.25;1.20;;;;;;;1.62;100.00;100010.09;5061509;28;20052;-85
2023/03/11 02:01:36;;;;;;;4.65;1.50;;;;;;;1.51;100.00;99998.16;5073436;28;20047;-84
2023/03/11 02:04:03;;;;;;;6.03;1.52;;;;;;;1.36;100.00;99972.53;5063074;28;20044;-85
2023/03/11 02:06:31;;;;;;;1.83;1.20;;;;;;;1.39;100.00;99971.66;5074111;28;20059;-84
2023/03/11 02:09:00;;;;;;;2.67;1.25;;;;;;;1.65;100.00;100012.63;5059586;28;20055;-84
2023/03/11 02:11:29;;;;;;;2.78;1.45;;;;;;;1.14;100.00;99948.75;5081744;28;20044;-85
2023/03/11 02:14:01;;;;;;;2.38;1.27;;;;;;;1.22;100.00;99970.16;5071716;28;20093;-85
2023/03/11 02:16:27;;;;;;;2.83;1.20;;;;;;;1.37;100.00;100000.06;5072401;28;20406;-84
2023/03/11 02:18:59;;;;;;;2.72;1.35;;;;;;;1.02;100.00;99959.19;5067855;28;20056;-84
2023/03/11 02:21:31;;;;;;;2.90;1.45;;;;;;;1.06;100.00;99968.59;5053313;28;20057;-85
2023/03/11 02:24:11;;;;;;;1.95;1.17;;;;;;;0.98;100.00;99984.16;5053974;28;20053;-84
2023/03/11 02:27:00;;;;;;;2.95;1.30;;;;;;;0.97;100.00;100004.78;5064420;28;20075;-84
2023/03/11 02:29:28;;;;;;;2.85;1.35;;;;;;;0.99;100.00;100005.63;5055062;28;20049;-85
2023/03/11 02:31:57;;;;;;;2.33;1.40;;;;;;;1.08;100.00;100026.16;5055921;28;20048;-84
2023/03/11 02:34:30;;;;;;;3.45;1.40;;;;;;;0.71;100.00;99975.84;5085705;28;20044;-84
2023/03/11 02:36:58;;;;;;;3.30;1.38;;;;;;;0.88;100.00;99993.69;5071656;28;20055;-84
2023/03/11 02:39:52;;;;;;;3.08;1.30;;;;;;;1.10;100.00;100025.28;5055745;28;20456;-84
2023/03/11 02:42:29;;;;;;;1.98;1.20;;;;;;;0.96;100.00;100003.94;5050648;28;20433;-85
2023/03/11 02:45:08;;;;;;;3.13;1.23;;;;;;;0.70;100.00;99974.13;5068603;28;20048;-85
2023/03/11 02:47:37;;;;;;;2.10;1.27;;;;;;;1.08;100.00;100023.56;5082045;28;20123;-84
2023/03/11 02:50:06;;;;;;;3.05;1.40;;;;;;;1.02;100.00;100036.53;5057066;28;20075;-84
2023/03/11 02:52:34;;;;;;;3.78;1.30;;;;;;;0.95;100.00;100026.28;5073121;28;20407;-84
2023/03/11 02:55:01;;;;;;;2.58;1.30;;;;;;;1.02;100.00;100027.06;5070636;28;20048;-85
2023/03/11 02:57:28;;;;;;;3.45;1.30;;;;;;;0.88;100.00;100005.75;5057788;28;20044;-84
2023/03/11 02:59:55;;;;;;;2.33;1.38;;;;;;;0.74;100.00;99969.78;5075364;28;20044;-84
2023/03/11 03:02:21;;;;;;;5.82;1.50;;;;;;;1.08;100.00;100029.59;5062407;28;20089;-85
2023/03/11 03:04:48;;;;;;;5.03;1.55;;;;;;;0.93;100.00;99998.81;5077815;28;20040;-85
2023/03/11 03:07:15;;;;;;;3.70;1.40;;;;;;;0.99;100.00;99996.16;5077332;28;20044;-85
2023/03/11 03:09:41;;;;;;;3.40;1.35;;;;;;;1.18;100.00;100038.09;5074083;28;20043;-84
2023/03/11 03:12:08;;;;;;;4.70;1.50;;;;;;;1.01;100.00;100021.94;5060272;28;20049;-84
2023/03/11 03:14:35;;;;;;;3.53;1.23;;;;;;;0.71;100.00;99980.16;5056929;28;20425;-84
2023/03/11 03:17:02;;;;;;;4.45;1.73;;;;;;;0.47;100.00;99958.03;5074247;28;20052;-85
2023/03/11 03:19:28;;;;;;;7.38;1.75;;;;;;;0.92;100.00;100010.84;5063846;28;20047;-85
2023/03/11 03:21:55;;;;;;;3.40;1.60;;;;;;;0.71;100.00;99993.03;5080831;28;20452;-85
2023/03/11 03:24:22;;;;;;;6.15;1.83;;;;;;;0.70;100.00;99987.00;5075706;28;20044;-85
2023/03/11 03:26:48;;;;;;;3.85;1.60;;;;;;;1.03;100.00;100038.25;5077465;28;20060;-85
2023/03/11 03:29:15;;;;;;;3.72;1.60;;;;;;;0.68;100.00;100005.94;5077013;28;20044;-85
2023/03/11 03:31:42;;;;;;;4.57;1.50;;;;;;;0.62;100.00;99978.50;5081852;28;20045;-84
2023/03/11 03:34:09;;;;;;;6.55;1.60;;;;;;;0.78;100.00;100035.03;5069675;28;20040;-84
2023/03/11 03:36:36;;;;;;;3.88;1.50;;;;;;;0.66;100.00;100013.66;5074971;28;20044;-85
2023/03/11 03:39:04;;;;;;;5.03;1.40;;;;;;;0.90;100.00;100051.25;5059284;28;20053;-84
2023/03/11 03:41:31;;;;;;;3.80;1.35;;;;;;;0.67;100.00;99996.47;5068629;28;20488;-84
2023/03/11 03:43:57;;;;;;;3.40;1.40;;;;;;;0.63;100.00;100000.81;5064643;28;20451;-84
2023/03/11 03:46:24;;;;;;;8.32;3.30;;;;;;;0.79;100.00;100016.13;5078517;28;20048;-85
2023/03/11 03:48:51;;;;;;;3.40;1.50;;;;;;;0.49;100.00;99982.88;5074269;28;20049;-84
2023/03/11 03:51:18;;;;;;;5.65;1.55;;;;;;;0.79;100.00;100044.47;5064590;28;20048;-85
2023/03/11 03:53:48;;;;;;;7.95;1.88;;;;;;;0.74;100.00;100036.78;5080302;28;20109;-85
2023/03/11 03:56:16;;;;;;;4.80;1.77;;;;;;;0.65;100.00;100042.03;5072370;28;20098;-85
2023/03/11 03:58:43;;;;;;;5.22;1.60;;;;;;;0.63;100.00;100033.44;5071112;28;20466;-85
2023/03/11 04:01:10;;;;;;;5.32;1.75;;;;;;;0.84;100.00;100055.63;5071498;28;20678;-85
2023/03/11 04:03:38;;;;;;;5.55;2.60;;;;;;;0.49;100.00;99989.75;5061257;28;20051;-85
2023/03/11 04:06:25;;;;;;;5.32;2.10;;;;;;;0.49;100.00;99994.91;5072909;28;20058;-85
2023/03/11 04:08:53;;;;;;;5.63;1.73;;;;;;;0.61;100.00;100025.72;5081057;28;20049;-85
2023/03/11 04:11:21;;;;;;;4.65;1.80;;;;;;;0.86;100.00;100046.13;5076001;28;20047;-84
2023/03/11 04:13:48;;;;;;;6.53;1.85;;;;;;;0.83;100.00;100030.69;5063108;28;20051;-84
2023/03/11 04:16:19;;;;;;;5.35;1.60;;;;;;;0.62;100.00;100005.97;5074795;28;20101;-85
2023/03/11 04:18:47;;;;;;;5.38;1.90;;;;;;;0.69;100.00;100034.25;5076406;28;20429;-85
2023/03/11 04:21:14;;;;;;;6.47;1.65;;;;;;;0.52;100.00;100025.81;5074623;28;20056;-85
2023/03/11 04:23:41;;;;;;;3.65;1.55;;;;;;;0.22;100.00;100019.16;5075323;28;20048;-84
2023/03/11 04:26:07;;;;;;;4.45;1.70;;;;;;;0.11;100.00;100004.63;5061394;28;20048;-85
2023/03/11 04:28:34;;;;;;;3.65;1.40;;;;;;;0.35;100.00;100005.31;5063884;28;20048;-84
2023/03/11 04:31:01;;;;;;;6.20;2.03;;;;;;;0.57;100.00;100045.50;5085771;28;20041;-84
2023/03/11 04:33:27;;;;;;;7.43;1.92;;;;;;;0.40;100.00;100031.91;5063375;28;20137;-85
2023/03/11 04:35:54;;;;;;;6.63;1.73;;;;;;;0.49;100.00;100057.59;5056135;28;20057;-85
2023/03/11 04:38:21;;;;;;;5.95;2.28;;;;;;;0.13;100.00;99984.03;5063494;28;20082;-84
2023/03/11 04:40:48;;;;;;;7.03;1.70;;;;;;;0.32;100.00;100031.97;5071724;28;20046;-85
2023/03/11 04:43:15;;;;;;;7.93;1.95;;;;;;;0.62;100.00;100078.09;5086658;28;20056;-85
2023/03/11 04:45:42;;;;;;;5.88;1.95;;;;;;;0.71;100.00;100080.63;5068139;28;20055;-84
2023/03/11 04:48:08;;;;;;;7.10;1.70;;;;;;;0.04;100.00;100027.88;5070462;28;20052;-84
2023/03/11 04:50:35;;;;;;;7.03;1.70;;;;;;;0.30;100.00;100038.84;5065786;28;20414;-85
2023/03/11 04:53:02;;;;;;;7.72;2.00;;;;;;;0.08;100.00;99998.66;5056917;28;20048;-84
2023/03/11 04:55:28;;;;;;;6.97;1.70;;;;;;;0.56;100.00;100061.81;5054500;28;20044;-85
2023/03/11 04:57:55;;;;;;;4.07;1.60;;;;;;;0.48;100.00;100063.63;5069190;28;20098;-85
2023/03/11 05:00:23;;;;;;;4.18;1.50;;;;;;;0.30;100.00;100004.50;5054711;28;20097;-85
2023/03/11 05:02:51;;;;;;;11.25;1.85;;;;;;;0.60;100.00;100087.56;5072909;28;20049;-85
2023/03/11 05:05:19;;;;;;;5.90;1.75;;;;;;;0.21;100.00;100018.28;5058689;28;20482;-84
2023/03/11 05:07:46;;;;;;;6.18;1.50;;;;;;;0.69;100.00;100096.09;5081842;28;20402;-85
2023/03/11 05:10:13;;;;;;;5.00;1.60;;;;;;;0.54;100.00;100094.47;5063578;28;20093;-85
2023/03/11 05:12:40;;;;;;;6.25;1.95;;;;;;;0.43;100.00;100067.94;5075013;28;20470;-84
2023/03/11 05:15:07;;;;;;;6.55;1.63;;;;;;;0.32;100.00;100059.41;5073678;28;20048;-85
2023/03/11 05:17:34;;;;;;;4.38;1.35;;;;;;;0.41;100.00;100063.66;5084640;28;20048;-85
2023/03/11 05:20:00;;;;;;;6.13;1.40;;;;;;;0.34;100.00;100063.72;5072812;28;20056;-85
2023/03/11 05:22:27;;;;;;;7.45;1.73;;;;;;;0.11;100.00;100032.09;5058872;28;20044;-85
2023/03/11 05:24:54;;;;;;;4.43;1.63;;;;;;;0.26;100.00;100073.19;5079989;28;20040;-85
2023/03/11 05:27:20;;;;;;;5.05;1.70;;;;;;;0.13;100.00;100045.81;5055291;28;20052;-85
2023/03/11 05:29:47;;;;;;;4.43;1.75;;;;;;;0.31;100.00;100050.84;5072064;28;20040;-85
2023/03/11 05:32:14;;;;;;;3.15;1.30;;;;;;;0.66;100.00;100103.84;5053914;28;20056;-84
2023/03/11 05:34:41;;;;;;;2.25;1.30;;;;;;;0.55;100.00;100088.47;5071934;28;20048;-84
2023/03/11 05:37:08;;;;;;;2.75;1.20;;;;;;;0.54;100.00;100086.75;5068010;28;20047;-84
2023/03/11 05:39:36;;;;;;;3.13;1.40;;;;;;;0.38;100.00;100067.13;5054039;28;20066;-84
2023/03/11 05:42:07;;;;;;;5.30;1.50;;;;;;;0.15;100.00;100026.91;5074381;28;20127;-84
2023/03/11 05:44:34;;;;;;;6.25;1.30;;;;;;;0.47;100.00;100092.81;5078321;28;20043;-86
2023/03/11 05:47:00;;;;;;;2.05;1.25;;;;;;;0.24;100.00;100044.03;5092679;28;20075;-85
2023/03/11 05:49:27;;;;;;;4.63;1.38;;;;;;;0.69;100.00;100118.41;5074101;28;20068;-86
2023/03/11 05:51:54;;;;;;;4.50;1.30;;;;;;;0.36;100.00;100061.13;5071458;28;20055;-85
2023/03/11 05:54:24;;;;;;;3.47;1.20;;;;;;;0.72;100.00;100123.56;5054513;28;20058;-85
2023/03/11 05:56:51;;;;;;;2.47;1.30;;;;;;;0.68;100.00;100117.56;5072603;28;20099;-85
2023/03/11 05:59:18;;;;;;;4.13;1.63;;;;;;;0.56;100.00;100118.50;5053727;28;20057;-84
2023/03/11 06:01:44;;;;;;;2.88;1.30;;;;;;;0.41;100.00;100089.41;5058971;28;20055;-84
2023/03/11 06:04:11;;;;;;;3.25;1.40;;;;;;;0.40;100.00;100093.72;5079550;28;20063;-82
2023/03/11 06:06:42;;;;;;;2.47;1.20;;;;;;;0.30;100.00;100087.78;5077404;28;20093;-82
2023/03/11 06:09:12;;;;;;;2.42;1.20;;;;;;;0.54;100.00;100125.38;5081142;28;20044;-84
2023/03/11 06:11:39;;;;;;;4.95;1.27;;;;;;;0.50;100.00;100126.28;5075573;28;20052;-85
2023/03/11 06:14:06;;;;;;;3.58;1.48;;;;;;;0.17;100.00;100088.69;5082641;28;20048;-84
2023/03/11 06:16:33;;;;;;;2.28;1.25;;;;;;;0.20;100.00;100069.81;5063001;28;20049;-82
2023/03/11 06:19:00;;;;;;;4.68;1.40;;;;;;;0.14;100.00;100068.13;5064789;28;20053;-84
2023/03/11 06:21:26;;;;;;;5.05;1.52;;;;;;;0.37;100.00;100104.91;5080706;28;20105;-84
2023/03/11 06:23:54;;;;;;;3.47;1.45;;;;;;;0.40;100.00;100122.03;5064776;28;20113;-84
2023/03/11 06:26:22;;;;;;;4.40;1.83;;;;;;;0.41;100.00;100115.16;5082043;28;20052;-84
2023/03/11 06:28:50;;;;;;;4.10;1.35;;;;;;;0.33;100.00;100121.22;5064797;28;20135;-84
2023/03/11 06:31:24;;;;;;;4.80;1.55;;;;;;;0.32;100.00;100127.25;5085751;28;20523;-84
2023/03/11 06:33:52;;;;;;;3.58;1.42;;;;;;;0.14;100.00;100084.44;5084382;28;20079;-84
2023/03/11 06:36:19;;;;;;;4.13;1.60;;;;;;;-0.23;100.00;100048.59;5070413;28;20055;-84
2023/03/11 06:38:47;;;;;;;4.88;1.48;;;;;;;0.22;100.00;100115.28;5083690;28;20043;-84
2023/03/11 06:41:14;;;;;;;4.47;1.42;;;;;;;-0.23;100.00;100038.28;5063914;28;20481;-84
2023/03/11 06:43:41;;;;;;;2.92;1.30;;;;;;;0.01;100.00;100074.19;5083247;28;20492;-84
2023/03/11 06:46:10;;;;;;;4.00;1.30;;;;;;;0.10;100.00;100118.75;5068786;28;20114;-84
2023/03/11 06:48:37;;;;;;;2.05;1.30;;;;;;;-0.17;100.00;100057.97;5065425;28;20764;-84
2023/03/11 06:51:04;;;;;;;3.72;1.48;;;;;;;-0.26;100.00;100043.44;5072216;28;20064;-84
2023/03/11 06:53:31;;;;;;;3.55;1.40;;;;;;;0.35;100.00;100134.09;5064873;28;20740;-84
2023/03/11 06:56:12;;;;;;;2.47;1.25;;;;;;;0.35;100.00;100134.97;5069644;28;20102;-85
2023/03/11 06:58:41;;;;;;;2.88;1.40;;;;;;;0.31;100.00;100135.81;5072267;28;20496;-84
2023/03/11 07:01:13;;;;;;;2.13;1.25;;;;;;;0.24;100.00;100129.00;5071536;28;20055;-85
2023/03/11 07:03:40;;;;;;;6.32;1.58;;;;;;;0.38;100.00;100141.81;5084758;28;20450;-85
2023/03/11 07:06:16;;;;;;;3.95;1.30;;;;;;;0.16;100.00;100103.31;5083656;28;20073;-86
2023/03/11 07:08:43;;;;;;;2.35;1.23;;;;;;;0.32;100.00;100132.41;5065230;28;20071;-85
2023/03/11 07:11:16;;;;;;;1.77;1.15;;;;;;;0.48;100.00;100155.47;5073455;28;20047;-85
2023/03/11 07:13:43;;;;;;;2.15;1.40;;;;;;;0.33;100.00;100136.66;5077091;28;20458;-85
2023/03/11 07:16:16;;;;;;;6.78;2.15;;;;;;;0.36;100.00;100153.84;5063949;28;20044;-85
2023/03/11 07:18:45;;;;;;;;;;;;;;;0.54;100.00;100170.91;5085571;28;20653;-85
2023/03/11 07:21:18;;;;;;;2.25;1.30;;;;;;;0.39;100.00;100161.56;5070745;28;19956;-85
2023/03/11 07:23:46;;;;;;;2.88;1.35;;;;;;;0.45;100.00;100165.81;5083432;28;20044;-85
2023/03/11 07:26:14;;;;;;;2.95;1.40;;;;;;;0.48;100.00;100166.66;5062121;28;20079;-85
2023/03/11 07:28:41;;;;;;;2.85;1.30;;;;;;;0.48;100.00;100164.06;5084871;28;20056;-85
2023/03/11 07:31:10;;;;;;;2.65;1.48;;;;;;;0.51;100.00;100176.06;5070500;28;20051;-85
2023/03/11 07:33:37;;;;;;;4.97;1.63;;;;;;;0.39;100.00;100164.13;5084699;28;20052;-85
2023/03/11 07:36:09;;;;;;;5.07;1.83;;;;;;;0.43;100.00;100147.78;5067361;28;20461;-85
2023/03/11 07:38:36;;;;;;;3.20;1.40;;;;;;;1.58;100.00;100171.84;5067507;28;20051;-85
2023/03/11 07:41:03;;;;;;;5.22;1.63;;;;;;;2.35;100.00;100146.84;5067064;28;20052;-85
2023/03/11 07:43:30;;;;;;;5.20;1.52;;;;;;;2.85;100.00;100158.19;5065670;28;20101;-86
2023/03/11 07:46:09;;;;;;;5.03;1.48;;;;;;;3.57;100.00;100190.66;5069001;28;20052;-86
2023/03/11 07:48:38;;;;;;;5.97;1.27;;;;;;;3.90;100.00;100197.88;5083880;28;20059;-86
2023/03/11 07:51:13;;;;;;;2.78;1.27;;;;;;;3.69;100.00;100171.47;5080884;28;20055;-86
2023/03/11 07:53:40;;;;;;;3.38;1.30;;;;;;;4.25;100.00;100197.19;5083751;28;20063;-86
2023/03/11 07:56:10;;;;;;;4.45;1.38;;;;;;;4.51;100.00;100193.19;5082626;28;20055;-86
2023/03/11 07:58:37;;;;;;;3.35;1.27;;;;;;;4.75;100.00;100184.88;5066287;28;20052;-86
2023/03/11 08:01:05;;;;;;;3.50;1.40;;;;;;;4.87;100.00;100206.22;5068425;28;20048;-87
2023/03/11 08:03:33;;;;;;;4.25;1.30;;;;;;;4.89;100.00;100181.97;5083090;28;20086;-84
2023/03/11 08:06:01;;;;;;;2.80;1.05;;;;;;;5.12;100.00;100193.56;5070204;28;20132;-85
2023/03/11 08:08:28;;;;;;;4.75;1.30;;;;;;;5.19;100.00;100202.00;5072131;28;20049;-84
2023/03/11 08:10:54;;;;;;;6.53;1.15;;;;;;;4.94;100.00;100166.31;5062357;28;20067;-85
2023/03/11 08:13:21;;;;;;;2.05;1.00;;;;;;;5.29;100.00;100177.56;5067885;28;20051;-84
2023/03/11 08:15:48;;;;;;;3.88;1.45;;;;;;;4.94;100.00;100171.50;5081359;28;20052;-85
2023/03/11 08:18:15;;;;;;;5.68;1.27;;;;;;;5.07;100.00;100187.63;5073528;28;20091;-85
2023/03/11 08:20:44;;;;;;;3.95;1.35;;;;;;;5.20;100.00;100152.66;5073614;28;20101;-86
2023/03/11 08:23:11;;;;;;;3.20;1.20;;;;;;;5.58;100.00;100205.41;5064081;28;20052;-86
2023/03/11 08:25:39;;;;;;;8.18;1.38;;;;;;;5.35;100.00;100173.94;5074065;28;20048;-86
2023/03/11 08:28:07;;;;;;;3.47;1.42;;;;;;;5.97;100.00;100215.66;5067045;28;20079;-86
2023/03/11 08:30:34;;;;;;;4.38;1.30;;;;;;;5.40;100.00;100209.31;5075588;28;20048;-86
2023/03/11 08:33:01;;;;;;;6.18;1.40;;;;;;;4.68;100.00;100147.00;5083595;28;20049;-86
2023/03/11 08:35:28;;;;;;;5.15;1.45;;;;;;;5.33;100.00;100180.03;5073807;28;20044;-85
2023/03/11 08:37:55;;;;;;;6.68;1.63;;;;;;;4.97;100.00;100179.19;5063479;28;20123;-85
2023/03/11 08:40:21;;;;;;;5.72;1.60;;;;;;;4.77;100.00;100181.41;5071579;28;20048;-86
2023/03/11 08:42:48;;;;;;;4.10;1.10;;;;;;;4.96;100.00;100224.19;5055126;28;20059;-86
2023/03/11 08:45:15;;;;;;;3.50;1.10;;;;;;;5.07;100.00;100203.19;5063484;28;20669;-85
2023/03/11 08:47:42;;;;;;;3.33;1.20;;;;;;;5.25;100.00;100202.72;5074698;28;20144;-85
2023/03/11 08:50:14;;;;;;;3.35;1.20;;;;;;;5.63;100.00;100226.91;5065632;28;20048;-87
2023/03/11 08:52:41;;;;;;;4.50;1.38;;;;;;;5.50;100.00;100197.78;5090176;28;20494;-85
2023/03/11 08:55:10;;;;;;;3.85;1.35;;;;;;;5.20;100.00;100206.34;5064973;28;20049;-85
2023/03/11 08:57:37;;;;;;;3.40;1.20;;;;;;;5.48;100.00;100217.75;5055540;28;20053;-85
2023/03/11 09:00:06;;;;;;;7.55;1.95;;;;;;;5.51;100.00;100227.22;5063607;28;20055;-85
2023/03/11 09:02:34;;;;;;;6.90;1.10;;;;;;;5.50;100.00;100238.47;5069593;28;20460;-85
2023/03/11 09:05:01;;;;;;;2.72;1.10;;;;;;;5.04;100.00;100185.09;5072116;28;20051;-85
2023/03/11 09:07:28;;;;;;;2.35;1.10;;;;;;;4.68;100.00;100180.69;5074435;28;20105;-85
2023/03/11 09:09:56;;;;;;;5.50;1.20;;;;;;;5.16;100.00;100221.13;5064585;28;20051;-85
2023/03/11 09:12:23;;;;;;;2.80;1.08;;;;;;;5.31;100.00;100235.47;5062986;28;20060;-85
2023/03/11 09:14:49;;;;;;;3.92;1.23;;;;;;;5.13;100.00;100231.56;5077140;28;20048;-85
2023/03/11 09:17:16;;;;;;;4.30;1.45;;;;;;;4.17;100.00;100212.84;5092628;28;20044;-84
2023/03/11 09:19:43;;;;;;;4.90;1.23;;;;;;;4.27;100.00;100213.53;5071233;28;20135;-84
2023/03/11 09:22:10;;;;;;;3.95;1.20;;;;;;;4.02;100.00;100179.50;5074483;28;20079;-86
2023/03/11 09:24:37;;;;;;;3.45;1.20;;;;;;;3.99;100.00;100198.53;5070946;28;20044;-85
2023/03/11 09:27:04;;;;;;;5.07;1.55;;;;;;;4.09;100.00;100204.41;5077235;28;20056;-84
2023/03/11 09:29:31;;;;;;;5.32;1.50;;;;;;;4.34;100.00;100198.72;5074445;28;20481;-85
2023/03/11 09:31:58;;;;;;;4.03;1.25;;;;;;;3.87;100.00;100162.50;5064576;28;20048;-84
2023/03/11 09:34:25;;;;;;;2.60;1.20;;;;;;;4.05;100.00;100207.91;5061596;28;20402;-84
2023/03/11 09:36:51;;;;;;;7.07;1.45;;;;;;;4.21;100.00;100187.75;5061934;28;20048;-83
2023/03/11 09:39:18;;;;;;;7.82;1.50;;;;;;;4.11;100.00;100204.38;5068226;28;20059;-84
2023/03/11 09:41:56;;;;;;;12.18;3.25;;;;;;;4.57;100.00;100244.91;5056302;28;20053;-84
2023/03/11 09:44:49;;;;;;;5.30;1.20;;;;;;;4.80;100.00;100235.78;5067007;28;20470;-84
2023/03/11 09:47:47;;;;;;;4.63;1.27;;;;;;;4.20;100.00;100222.31;5074426;28;20052;-83
2023/03/11 09:50:36;;;;;;;4.03;1.52;;;;;;;4.49;100.00;100239.88;5058590;28;20627;-84
2023/03/11 09:53:28;;;;;;;10.95;1.90;;;;;;;4.68;100.00;100239.50;5060298;28;20055;-84
2023/03/11 09:55:58;;;;;;;14.38;2.75;;;;;;;4.22;100.00;100217.97;5067264;28;20044;-84
2023/03/11 09:58:36;;;;;;;5.93;1.20;;;;;;;4.73;100.00;100250.63;5073885;28;20098;-85
2023/03/11 10:01:15;;;;;;;3.75;1.30;;;;;;;4.53;100.00;100205.25;5080290;28;20055;-84
2023/03/11 10:03:43;;;;;;;9.80;1.90;;;;;;;3.98;100.00;100225.34;5077030;28;20105;-84
2023/03/11 10:06:20;;;;;;;16.05;2.00;;;;;;;4.58;100.00;100249.19;5075916;28;20045;-85
2023/03/11 10:08:56;;;;;;;7.38;1.60;;;;;;;4.39;100.00;100199.47;5073549;28;20093;-85
2023/03/11 10:11:26;;;;;;;7.43;2.00;;;;;;;4.37;100.00;100242.72;5077902;28;20045;-85
2023/03/11 10:14:31;;;;;;;5.00;1.33;;;;;;;4.14;100.00;100228.50;5088012;28;20052;-85
2023/03/11 10:16:58;;;;;;;17.70;3.75;;;;;;;4.14;100.00;100249.22;5067802;28;20044;-85
2023/03/11 10:19:46;;;;;;;7.25;1.48;;;;;;;4.42;100.00;100243.47;5059774;28;20052;-85
2023/03/11 10:22:24;;;;;;;5.47;1.40;;;;;;;4.44;100.00;100223.56;5068414;28;20045;-85
2023/03/11 10:25:13;;;;;;;4.05;1.30;;;;;;;4.77;100.00;100244.50;5071699;28;20045;-85
2023/03/11 10:27:50;;;;;;;7.55;1.63;;;;;;;4.69;100.00;100236.88;5054521;28;20052;-84
2023/03/11 10:30:39;;;;;;;13.73;2.08;;;;;;;4.85;100.00;100249.50;5063836;28;20445;-85
2023/03/11 10:33:20;;;;;;;7.07;1.65;;;;;;;4.57;97.29;100235.38;5065915;28;20059;-85
2023/03/11 10:35:52;;;;;;;7.80;1.55;;;;;;;4.34;99.14;100228.09;5070467;28;20036;-85
2023/03/11 10:38:25;;;;;;;16.48;2.25;;;;;;;4.26;96.76;100227.38;5062994;28;20076;-85
2023/03/11 10:40:58;;;;;;;11.85;1.83;;;;;;;4.57;95.42;100242.31;5082443;28;20079;-86
2023/03/11 10:43:40;;;;;;;4.43;1.42;;;;;;;4.63;96.36;100216.25;5066491;28;20117;-85
2023/03/11 10:46:22;;;;;;;9.15;1.45;;;;;;;4.42;94.09;100193.38;5079131;28;20452;-85
2023/03/11 10:48:49;;;;;;;8.77;1.55;;;;;;;4.79;94.30;100254.84;5058551;28;20044;-85
2023/03/11 10:51:21;;;;;;;3.67;1.23;;;;;;;4.90;93.50;100251.09;5060826;28;20048;-84
2023/03/11 10:53:54;;;;;;;3.78;1.35;;;;;;;4.88;90.66;100237.31;5062426;28;20408;-85
2023/03/11 10:56:39;;;;;;;8.32;1.27;;;;;;;4.72;91.42;100215.19;5068254;28;20051;-86
2023/03/11 10:59:28;;;;;;;13.70;2.42;;;;;;;5.07;89.63;100252.50;5068208;28;20044;-85
2023/03/11 11:01:56;;;;;;;11.77;2.40;;;;;;;5.01;89.28;100258.66;5058977;28;20056;-85
2023/03/11 11:04:29;;;;;;;8.27;1.30;;;;;;;4.80;90.34;100220.22;5062301;28;20405;-85
2023/03/11 11:06:58;;;;;;;;;;;;;;;5.16;87.48;100267.84;5084288;28;20059;-85
2023/03/11 11:09:25;;;;;;;11.30;2.03;;;;;;;4.55;88.71;100229.38;5064131;28;19973;-85
2023/03/11 11:12:04;;;;;;;16.10;2.15;;;;;;;4.72;90.63;100260.13;5064946;28;20059;-85
2023/03/11 11:14:48;;;;;;;6.82;2.00;;;;;;;4.92;88.94;100259.72;5063776;28;20075;-85
2023/03/11 11:17:29;;;;;;;8.57;1.75;;;;;;;5.03;90.57;100259.47;5076420;28;20413;-85
2023/03/11 11:19:58;;;;;;;18.05;9.45;;;;;;;4.83;89.92;100205.44;5068055;28;20051;-84
2023/03/11 11:22:25;;;;;;;7.65;1.88;;;;;;;5.09;88.04;100214.38;5076376;28;20098;-84
2023/03/11 11:24:54;;;;;;;6.22;1.48;;;;;;;4.98;86.42;100216.38;5070070;28;20066;-84
2023/03/11 11:27:24;;;;;;;5.85;1.40;;;;;;;5.17;84.67;100243.59;5060834;28;20128;-84
2023/03/11 11:30:07;;;;;;;6.93;1.30;;;;;;;5.21;86.29;100257.38;5068233;28;20700;-85
2023/03/11 11:32:36;;;;;;;7.53;1.80;;;;;;;5.47;85.21;100256.72;5069105;28;20044;-85
2023/03/11 11:35:11;;;;;;;3.25;1.00;;;;;;;5.44;81.42;100252.47;5069200;28;20044;-84
2023/03/11 11:37:42;;;;;;;5.50;2.15;;;;;;;5.06;80.88;100235.19;5074882;28;20047;-84
2023/03/11 11:40:15;;;;;;;6.20;1.27;;;;;;;5.45;83.19;100256.78;5061351;28;20478;-83